Estación Meteorológica Peña el Pijo (Robertgarden) [ 07/19/18 09:35:55 CEST ]

Fecha Hora Presion(HPa) Temp (°C) Humedad % Rocio (°C) Viento ( m/s) Direccion Lluvia 1Hora(mm) Lluvia 24H(mm) LLuvia Total(mm)
2017-Dec-31 01:01:58 1016.100 3.1 68 -2.2         27.97
2017-Dec-31 02:01:41 1015.500 2.5 70 -2.4         27.97
2017-Dec-31 03:01:42 1015.200 1.6 71 -3.1         27.97
2017-Dec-31 04:01:40 1014.800 0.2 74 -3.9         27.97
2017-Dec-31 05:03:11 1014.200 0.6 75 -3.4         27.97
2017-Dec-31 06:01:55 1013.800 0.6 76 -3.2         27.97
2017-Dec-31 07:01:47 1013.800 0.7 74 -3.4         27.97
2017-Dec-31 08:01:49 1013.800 2.5 70 -2.4         27.97
2017-Dec-31 09:01:46 1013.700 4.3 61 -2.6         27.97
2017-Dec-31 10:01:44 1014.000 6.1 60 -1.1         27.97
2017-Dec-31 11:01:48 1014.300 10.4 50 0.5         27.97
2017-Dec-31 12:01:56 1014.100 13.5 40 0.2 0.5 NW     27.97
2017-Dec-31 13:01:32 1013.000 12.9 48 2.1         27.97
2017-Dec-31 14:01:51 1011.800 13.2 50 3.0 2.5 WNW     27.97
2017-Dec-31 15:02:08 1011.600 13.6 46 2.1 2.9 WNW     27.97
2017-Dec-31 16:01:57 1011.800 11.4 60 3.9 3.5 NNE     27.97
2017-Dec-31 17:01:41 1012.000 10.3 65 4.0 1.3 NNE     27.97
2017-Dec-31 18:01:55 1012.400 9.1 67 3.3 2.5 NW     27.97
2017-Dec-31 19:02:06 1012.900 8.9 69 3.5         27.97
2017-Dec-31 20:01:30 1013.900 8.9 71 3.9         27.97
2017-Dec-31 21:02:06 1014.100 9.1 73 4.5 1.5 NNE     27.97
2017-Dec-31 22:01:41 1015.100 9.6 68 4.0         27.97
2017-Dec-31 23:01:54 1016.400 8.6 63 1.9 2.7 WNW     27.97

Temperatura Máxima:13°    Temperatura Mínima:
Presión Máxima:1016.400 Hpa    Presión Mínima:1011.600 Hpa


Volver